Time;durP1;ratioP1;P1;durP2;ratioP2;P2;SDS_P1;SDS_P2;PMS_P1;PMS_P2;Temp;Humidity;BMP_temperature;BMP_pressure;BME280_temperature;BME280_humidity;BME280_pressure;Samples;Min_cycle;Max_cycle;Signal;HPM_P1;HPM_P2
2021/12/26 00:01:36;;;;;;;14.25;5.45;;;;;;;1.42;72.17;100488.47;5053238;28;20060;-63
2021/12/26 00:04:05;;;;;;;12.40;5.45;;;;;;;1.48;72.55;100493.31;5019082;28;20055;-64
2021/12/26 00:06:33;;;;;;;11.27;5.32;;;;;;;1.51;72.30;100495.69;5053208;28;20048;-64
2021/12/26 00:09:01;;;;;;;14.77;5.78;;;;;;;1.57;71.05;100492.69;5052961;28;20041;-64
2021/12/26 00:11:28;;;;;;;11.90;5.55;;;;;;;1.67;71.20;100492.91;5020594;28;20053;-63
2021/12/26 00:13:55;;;;;;;11.73;5.28;;;;;;;1.67;70.40;100495.53;5053242;28;20043;-64
2021/12/26 00:16:24;;;;;;;11.70;5.60;;;;;;;1.70;70.96;100493.53;5052845;28;20452;-64
2021/12/26 00:18:51;;;;;;;12.07;5.03;;;;;;;1.67;70.69;100488.53;5053124;28;20671;-64
2021/12/26 00:21:21;;;;;;;10.77;5.05;;;;;;;1.66;70.11;100486.03;5052878;28;20056;-64
2021/12/26 00:23:48;;;;;;;9.57;5.10;;;;;;;1.60;70.71;100486.41;5053119;28;20127;-64
2021/12/26 00:26:15;;;;;;;10.88;5.68;;;;;;;1.70;70.65;100490.09;5036367;28;20444;-64
2021/12/26 00:28:42;;;;;;;12.13;5.45;;;;;;;1.65;70.72;100493.00;5052633;28;20044;-64
2021/12/26 00:31:09;;;;;;;11.77;5.13;;;;;;;1.61;70.00;100481.09;5051048;28;20061;-63
2021/12/26 00:33:36;;;;;;;10.60;5.10;;;;;;;1.70;70.54;100475.22;5047131;28;20498;-63
2021/12/26 00:36:04;;;;;;;12.23;5.50;;;;;;;1.69;70.64;100481.41;5052471;28;20045;-64
2021/12/26 00:38:32;;;;;;;12.18;5.35;;;;;;;1.78;69.53;100479.94;5052796;28;20041;-65
2021/12/26 00:40:59;;;;;;;10.82;4.75;;;;;;;1.70;70.84;100469.19;5052876;28;20045;-63
2021/12/26 00:43:27;;;;;;;12.77;5.28;;;;;;;1.71;70.04;100471.69;5053717;28;20037;-64
2021/12/26 00:45:54;;;;;;;12.82;5.32;;;;;;;1.76;70.17;100473.97;5052739;28;20049;-64
2021/12/26 00:48:21;;;;;;;12.35;5.68;;;;;;;1.71;70.95;100462.97;5052279;28;20127;-64
2021/12/26 00:50:48;;;;;;;11.20;4.97;;;;;;;1.85;70.54;100460.28;5052300;28;20120;-63
2021/12/26 00:53:15;;;;;;;11.85;5.50;;;;;;;1.56;70.03;100459.63;5052565;28;20044;-63
2021/12/26 00:55:42;;;;;;;11.13;5.18;;;;;;;1.72;70.72;100456.81;5053331;28;20040;-64
2021/12/26 00:58:09;;;;;;;12.27;5.70;;;;;;;1.67;69.73;100451.06;5053506;28;20103;-64
2021/12/26 01:00:40;;;;;;;11.93;5.47;;;;;;;1.58;70.86;100449.91;5032074;28;20045;-65
2021/12/26 01:03:09;;;;;;;11.60;5.60;;;;;;;1.62;70.76;100450.53;5015868;28;20049;-65
2021/12/26 01:05:39;;;;;;;10.98;5.57;;;;;;;1.63;71.02;100449.59;5031610;28;20037;-63
2021/12/26 01:08:10;;;;;;;10.70;5.53;;;;;;;1.54;70.11;100454.50;5050394;28;20616;-64
2021/12/26 01:11:01;;;;;;;12.27;5.35;;;;;;;1.58;70.17;100452.50;5036268;28;20053;-64
2021/12/26 01:13:37;;;;;;;11.45;4.80;;;;;;;1.47;70.41;100448.00;5035588;28;20072;-64
2021/12/26 01:16:14;;;;;;;10.18;4.85;;;;;;;1.50;70.86;100452.22;5051990;28;20501;-64
2021/12/26 01:18:45;;;;;;;12.15;5.43;;;;;;;1.34;70.85;100453.22;5052681;28;20048;-64
2021/12/26 01:21:18;;;;;;;;;;;;;;;1.51;70.87;100454.72;5035815;28;20072;-64
2021/12/26 01:23:52;;;;;;;12.30;4.97;;;;;;;1.53;70.89;100455.47;5084652;28;20015;-65
2021/12/26 01:26:19;;;;;;;10.63;5.03;;;;;;;1.56;70.00;100450.97;5044123;28;20090;-64
2021/12/26 01:28:46;;;;;;;10.27;4.75;;;;;;;1.64;70.92;100453.91;5050019;28;20349;-64
2021/12/26 01:31:19;;;;;;;10.32;4.68;;;;;;;1.62;70.58;100447.91;5030985;28;20059;-67
2021/12/26 01:33:54;;;;;;;11.75;5.15;;;;;;;1.63;70.59;100449.59;5032515;28;20069;-64
2021/12/26 01:36:41;;;;;;;12.02;4.60;;;;;;;1.66;70.02;100460.69;5038182;28;20044;-64
2021/12/26 01:39:28;;;;;;;10.02;4.78;;;;;;;1.47;69.94;100455.03;5052692;28;20570;-64
2021/12/26 01:42:08;;;;;;;10.32;4.80;;;;;;;1.51;70.63;100453.88;5036737;28;20045;-64
2021/12/26 01:44:55;;;;;;;10.10;4.85;;;;;;;1.52;70.13;100450.31;5052373;28;20036;-64
2021/12/26 01:47:23;;;;;;;12.52;5.03;;;;;;;1.58;70.31;100454.31;5051379;28;20513;-64
2021/12/26 01:49:49;;;;;;;10.27;5.13;;;;;;;1.65;70.75;100456.41;5051444;28;20077;-65
2021/12/26 01:52:16;;;;;;;10.23;4.90;;;;;;;1.70;70.92;100456.09;5035094;28;20043;-65
2021/12/26 01:54:47;;;;;;;10.80;5.25;;;;;;;1.71;69.76;100461.22;5050951;28;20494;-64
2021/12/26 01:57:17;;;;;;;11.23;5.40;;;;;;;1.66;70.35;100455.47;5035395;28;20044;-65
2021/12/26 01:59:47;;;;;;;10.52;5.30;;;;;;;1.76;69.83;100457.44;5034807;28;20041;-65
2021/12/26 02:02:33;;;;;;;11.07;5.30;;;;;;;1.67;70.24;100453.69;5051226;28;20057;-65
2021/12/26 02:05:00;;;;;;;11.45;5.28;;;;;;;1.83;69.77;100458.72;5050490;28;20037;-65
2021/12/26 02:07:28;;;;;;;10.98;5.25;;;;;;;1.70;69.92;100446.47;5084020;28;20068;-65
2021/12/26 02:09:55;;;;;;;13.38;5.30;;;;;;;1.69;70.18;100447.44;5051076;28;20043;-65
2021/12/26 02:12:24;;;;;;;10.93;4.72;;;;;;;1.65;69.64;100442.50;5051515;28;20055;-65
2021/12/26 02:14:53;;;;;;;11.93;5.57;;;;;;;1.76;69.73;100439.16;5052329;28;20107;-65
2021/12/26 02:17:28;;;;;;;10.85;5.03;;;;;;;1.82;70.46;100442.19;5052359;28;20049;-65
2021/12/26 02:20:28;;;;;;;11.85;4.93;;;;;;;1.77;69.94;100438.22;5050980;28;20051;-65
2021/12/26 02:23:01;;;;;;;10.27;5.13;;;;;;;1.75;70.59;100434.84;5052352;28;20059;-65
2021/12/26 02:28:20;;;;;;;11.43;5.25;;;;;;;1.99;69.40;100440.19;5172468;27;20379;-65
2021/12/26 02:30:49;;;;;;;11.23;5.38;;;;;;;1.89;69.95;100435.59;5152024;27;20122;-65
2021/12/26 02:33:18;;;;;;;12.05;5.55;;;;;;;1.75;69.87;100437.47;5133466;27;20114;-65
2021/12/26 02:35:48;;;;;;;11.27;5.72;;;;;;;1.94;70.41;100431.81;5151487;27;20039;-65
2021/12/26 02:38:16;;;;;;;11.85;5.47;;;;;;;1.77;70.30;100433.00;5149860;27;20084;-65
2021/12/26 02:40:46;;;;;;;10.98;5.80;;;;;;;1.94;69.95;100419.56;5133054;27;20119;-65
2021/12/26 02:43:17;;;;;;;10.73;5.37;;;;;;;1.73;69.48;100425.34;5133737;27;20072;-65
2021/12/26 02:45:44;;;;;;;11.77;5.38;;;;;;;1.85;69.75;100422.81;5099471;27;20403;-64
2021/12/26 02:48:12;;;;;;;10.93;5.45;;;;;;;1.78;69.55;100421.56;5132762;27;20453;-64
2021/12/26 02:50:40;;;;;;;11.50;5.63;;;;;;;1.80;70.54;100419.69;5151401;27;20043;-64
2021/12/26 02:53:09;;;;;;;12.75;5.47;;;;;;;1.85;70.18;100421.03;5125716;27;20042;-65
2021/12/26 02:55:36;;;;;;;11.52;5.68;;;;;;;1.81;69.82;100421.38;5098966;27;20074;-65
2021/12/26 02:58:06;;;;;;;9.75;4.72;;;;;;;1.86;70.37;100420.09;5115863;27;20039;-65
2021/12/26 03:00:38;;;;;;;11.05;5.40;;;;;;;1.90;70.51;100428.56;5129967;27;20035;-65
2021/12/26 03:03:05;;;;;;;11.55;5.65;;;;;;;2.11;69.33;100428.84;5133266;27;20034;-65
2021/12/26 03:05:37;;;;;;;11.65;5.50;;;;;;;2.04;69.68;100430.25;5151683;27;20042;-65
2021/12/26 03:08:06;;;;;;;11.60;5.32;;;;;;;1.79;69.65;100421.47;5133574;27;20031;-65
2021/12/26 03:10:35;;;;;;;12.20;5.95;;;;;;;1.77;70.27;100431.19;5131524;27;20039;-64
2021/12/26 03:13:04;;;;;;;13.82;5.82;;;;;;;1.71;70.32;100432.47;5132571;27;20082;-65
2021/12/26 03:15:33;;;;;;;11.00;5.63;;;;;;;1.78;71.37;100430.25;5150439;27;20043;-65
2021/12/26 03:18:00;;;;;;;12.40;5.63;;;;;;;1.72;70.67;100431.50;5132639;27;20035;-65
2021/12/26 03:20:31;;;;;;;13.20;5.80;;;;;;;1.80;70.81;100432.75;5115100;27;20055;-65
2021/12/26 03:23:00;;;;;;;11.82;5.82;;;;;;;1.91;69.88;100435.47;5132512;27;20095;-65
2021/12/26 03:25:29;;;;;;;12.98;5.82;;;;;;;1.80;70.17;100431.00;5150538;27;20437;-65
2021/12/26 03:27:56;;;;;;;10.60;5.35;;;;;;;1.90;70.29;100432.03;5158823;27;20042;-65
2021/12/26 03:30:25;;;;;;;11.02;5.70;;;;;;;1.88;69.47;100433.91;5143180;27;20494;-65
2021/12/26 03:32:55;;;;;;;13.37;6.20;;;;;;;1.96;70.52;100438.59;5128054;27;20040;-65
2021/12/26 03:35:24;;;;;;;12.35;5.97;;;;;;;1.94;70.12;100431.81;5129831;27;20145;-65
2021/12/26 03:37:51;;;;;;;13.38;6.78;;;;;;;1.70;70.13;100425.53;5129986;27;20040;-65
2021/12/26 03:40:38;;;;;;;13.80;5.88;;;;;;;1.76;70.87;100420.84;5114750;28;20427;-65
2021/12/26 03:43:06;;;;;;;13.05;6.20;;;;;;;1.85;70.39;100430.66;5116098;28;20044;-65
2021/12/26 03:45:40;;;;;;;12.70;6.03;;;;;;;1.83;69.94;100427.31;5115686;27;20131;-65
2021/12/26 03:48:07;;;;;;;13.85;6.13;;;;;;;1.78;70.39;100425.00;5081319;28;20071;-64
2021/12/26 03:50:34;;;;;;;12.88;6.30;;;;;;;1.68;70.77;100427.44;5115836;28;20043;-65
2021/12/26 03:53:02;;;;;;;15.27;6.63;;;;;;;1.59;71.45;100416.78;5114758;28;20046;-65
2021/12/26 03:55:29;;;;;;;12.35;6.32;;;;;;;1.56;71.93;100411.75;5097705;28;20047;-65
2021/12/26 03:57:56;;;;;;;14.63;6.50;;;;;;;1.51;71.59;100414.66;5115356;28;20031;-65
2021/12/26 04:00:26;;;;;;;14.35;6.75;;;;;;;1.54;72.19;100411.84;5131568;27;20404;-65
2021/12/26 04:02:53;;;;;;;14.32;6.63;;;;;;;1.63;72.00;100407.75;5125749;27;20039;-65
2021/12/26 04:05:21;;;;;;;15.57;6.35;;;;;;;1.61;71.46;100413.09;5112553;28;20124;-65
2021/12/26 04:07:49;;;;;;;13.20;6.85;;;;;;;1.64;70.95;100410.28;5115391;28;20040;-64
2021/12/26 04:10:18;;;;;;;13.82;6.07;;;;;;;1.59;70.90;100401.09;5114059;28;20542;-64
2021/12/26 04:12:48;;;;;;;12.90;6.20;;;;;;;1.68;71.31;100403.06;5115332;28;20078;-65
2021/12/26 04:15:19;;;;;;;14.48;7.38;;;;;;;1.64;71.28;100399.81;5115218;28;20044;-65
2021/12/26 04:17:47;;;;;;;;;;;;;;;1.60;71.40;100400.13;5114583;28;20042;-65
2021/12/26 04:20:14;;;;;;;14.40;6.47;;;;;;;1.73;70.92;100404.41;5114246;28;19920;-64
2021/12/26 04:22:41;;;;;;;13.25;6.53;;;;;;;1.52;71.95;100406.72;5114188;28;20039;-65
2021/12/26 04:25:09;;;;;;;16.65;6.82;;;;;;;1.48;72.03;100404.41;5114705;28;20579;-65
2021/12/26 04:27:36;;;;;;;12.98;6.53;;;;;;;1.53;71.36;100405.78;5096859;28;20135;-65
2021/12/26 04:30:08;;;;;;;15.93;6.88;;;;;;;1.57;71.79;100401.19;5113664;28;20069;-64
2021/12/26 04:32:35;;;;;;;14.82;7.15;;;;;;;1.43;71.80;100396.03;5113919;28;20035;-65
2021/12/26 04:35:02;;;;;;;15.02;7.30;;;;;;;1.60;71.82;100400.13;5117206;27;20113;-65
2021/12/26 04:37:29;;;;;;;14.60;7.43;;;;;;;1.50;72.86;100394.69;5096485;28;20456;-64
2021/12/26 04:39:57;;;;;;;14.63;7.32;;;;;;;1.61;72.50;100397.41;5114980;28;20063;-65
2021/12/26 04:42:29;;;;;;;13.68;6.70;;;;;;;1.61;71.74;100392.19;5114979;28;20047;-65
2021/12/26 04:45:13;;;;;;;14.88;6.78;;;;;;;1.66;72.20;100390.09;5114750;28;20044;-65
2021/12/26 04:48:02;;;;;;;13.30;6.55;;;;;;;1.64;71.68;100386.75;5114273;28;20092;-65
2021/12/26 04:50:32;;;;;;;14.60;7.30;;;;;;;1.59;71.63;100391.44;5113830;27;20048;-65
2021/12/26 04:53:03;;;;;;;13.85;6.97;;;;;;;1.57;72.54;100390.72;5114657;28;20152;-65
2021/12/26 04:55:30;;;;;;;14.70;7.22;;;;;;;1.63;71.71;100392.06;5114510;28;20373;-65
2021/12/26 04:57:58;;;;;;;15.00;6.68;;;;;;;1.71;71.77;100390.63;5114531;28;20042;-65
2021/12/26 05:00:28;;;;;;;14.98;7.07;;;;;;;1.69;72.56;100384.66;5129432;27;20039;-65
2021/12/26 05:02:57;;;;;;;17.50;7.88;;;;;;;1.64;72.30;100378.06;5113546;27;20059;-65
2021/12/26 05:05:27;;;;;;;13.38;7.20;;;;;;;1.67;72.47;100378.69;5112524;28;20054;-65
2021/12/26 05:07:54;;;;;;;13.57;7.60;;;;;;;1.81;71.88;100372.50;5114152;28;20407;-65
2021/12/26 05:10:25;;;;;;;15.43;7.82;;;;;;;1.83;71.72;100378.44;5114292;28;20093;-65
2021/12/26 05:12:53;;;;;;;12.60;6.90;;;;;;;1.75;72.12;100378.16;5114012;28;20039;-65
2021/12/26 05:15:21;;;;;;;16.38;7.60;;;;;;;1.92;71.70;100377.81;5112765;28;20043;-65
2021/12/26 05:17:49;;;;;;;13.52;7.10;;;;;;;1.81;71.68;100374.28;5114213;28;20043;-65
2021/12/26 05:20:19;;;;;;;14.05;7.00;;;;;;;1.80;72.67;100383.91;5113162;27;20050;-65
2021/12/26 05:22:47;;;;;;;15.00;6.95;;;;;;;1.90;72.48;100374.47;5113070;27;20047;-65
2021/12/26 05:25:15;;;;;;;16.27;7.28;;;;;;;1.79;71.76;100374.38;5112528;28;20052;-65
2021/12/26 05:27:42;;;;;;;14.80;7.03;;;;;;;1.85;72.15;100381.78;5117280;27;20054;-65
2021/12/26 05:30:14;;;;;;;17.20;7.88;;;;;;;1.87;71.67;100374.72;5131402;27;20499;-66
2021/12/26 05:32:43;;;;;;;16.23;7.30;;;;;;;1.88;72.74;100378.16;5129166;27;20097;-65
2021/12/26 05:35:14;;;;;;;13.18;6.75;;;;;;;1.97;72.22;100379.28;5112487;28;20051;-64
2021/12/26 05:37:42;;;;;;;15.18;7.32;;;;;;;2.01;71.77;100375.50;5112700;28;20067;-65
2021/12/26 05:40:11;;;;;;;14.25;7.13;;;;;;;1.98;71.65;100378.34;5113625;28;20039;-65
2021/12/26 05:42:39;;;;;;;14.30;7.68;;;;;;;1.91;72.81;100383.16;5112553;28;20565;-64
2021/12/26 05:45:08;;;;;;;14.43;7.43;;;;;;;1.85;72.26;100373.94;5113539;28;20040;-64
2021/12/26 05:47:44;;;;;;;14.75;7.65;;;;;;;1.61;72.22;100381.72;5113816;27;20050;-65
2021/12/26 05:50:17;;;;;;;14.48;7.25;;;;;;;1.85;72.15;100379.19;5114490;28;20047;-65
2021/12/26 05:52:45;;;;;;;15.07;7.43;;;;;;;1.77;72.57;100384.13;5115222;27;20043;-65
2021/12/26 05:55:15;;;;;;;15.70;7.82;;;;;;;1.79;73.01;100379.63;5129178;27;20054;-65
2021/12/26 05:57:44;;;;;;;16.13;7.65;;;;;;;1.89;73.43;100388.50;5112255;28;20414;-65
2021/12/26 06:00:15;;;;;;;17.38;8.18;;;;;;;1.85;72.46;100379.19;5116668;27;20048;-65
2021/12/26 06:02:54;;;;;;;14.40;7.70;;;;;;;1.86;72.95;100382.66;5089957;27;20392;-63
2021/12/26 06:05:21;;;;;;;16.08;8.18;;;;;;;1.88;72.36;100380.75;5058888;28;20041;-64
2021/12/26 06:07:49;;;;;;;15.90;8.27;;;;;;;1.88;72.42;100378.97;5064733;28;20049;-63
2021/12/26 06:10:16;;;;;;;14.55;7.45;;;;;;;1.92;72.28;100382.22;5032318;28;20049;-63
2021/12/26 06:12:43;;;;;;;14.55;7.40;;;;;;;1.99;72.58;100364.31;5048631;28;20048;-63
2021/12/26 06:15:13;;;;;;;15.35;7.18;;;;;;;1.90;72.83;100369.25;5072672;28;20119;-63
2021/12/26 06:17:40;;;;;;;16.25;7.93;;;;;;;2.00;72.55;100371.22;5069687;28;20052;-64
2021/12/26 06:20:27;;;;;;;14.52;7.70;;;;;;;2.02;71.94;100364.94;5067903;28;20513;-64
2021/12/26 06:23:14;;;;;;;14.63;7.97;;;;;;;2.00;72.26;100363.34;5068673;28;20090;-64
2021/12/26 06:26:00;;;;;;;16.02;7.93;;;;;;;1.90;72.85;100371.84;5054338;28;20090;-64
2021/12/26 06:28:35;;;;;;;19.05;8.25;;;;;;;1.94;73.38;100362.00;5069621;28;20144;-64
2021/12/26 06:31:22;;;;;;;15.43;7.80;;;;;;;1.98;72.53;100367.88;5067682;28;20067;-64
2021/12/26 06:34:09;;;;;;;18.52;8.23;;;;;;;1.86;72.81;100372.19;5069004;28;20051;-64
2021/12/26 06:36:56;;;;;;;17.33;8.52;;;;;;;1.69;73.47;100355.88;5069393;28;20102;-64
2021/12/26 06:39:42;;;;;;;17.90;8.40;;;;;;;1.76;73.24;100369.34;5068263;28;20057;-63
2021/12/26 06:42:31;;;;;;;16.80;8.30;;;;;;;1.77;73.37;100373.66;5068824;28;20045;-63
2021/12/26 06:45:18;;;;;;;15.75;8.18;;;;;;;1.71;74.06;100366.22;5069051;28;20050;-63
2021/12/26 06:48:06;;;;;;;15.32;8.32;;;;;;;1.72;73.40;100360.06;5069085;28;20116;-64
2021/12/26 06:50:35;;;;;;;16.90;9.15;;;;;;;1.59;74.61;100365.31;5069055;28;20055;-64
2021/12/26 06:53:03;;;;;;;18.02;8.85;;;;;;;1.71;74.60;100364.47;5068764;28;20559;-63
2021/12/26 06:55:30;;;;;;;20.42;8.57;;;;;;;1.70;73.70;100357.53;5067800;28;20383;-64
2021/12/26 06:57:57;;;;;;;17.40;8.77;;;;;;;1.72;74.24;100362.69;5068909;28;20044;-64
2021/12/26 07:00:23;;;;;;;18.80;8.57;;;;;;;1.73;73.62;100357.34;5068730;28;20040;-64
2021/12/26 07:02:50;;;;;;;15.40;8.70;;;;;;;1.83;73.47;100352.28;5088779;28;20040;-64
2021/12/26 07:05:18;;;;;;;18.35;8.93;;;;;;;1.86;73.60;100367.78;5087050;28;20447;-65
2021/12/26 07:07:56;;;;;;;17.92;8.75;;;;;;;1.94;73.29;100369.88;5088698;28;20040;-64
2021/12/26 07:10:24;;;;;;;15.13;8.02;;;;;;;1.86;73.49;100349.47;5054420;28;20083;-65
2021/12/26 07:12:51;;;;;;;16.75;8.10;;;;;;;1.96;73.58;100362.72;5048845;28;20401;-65
2021/12/26 07:15:35;;;;;;;18.55;8.50;;;;;;;2.01;73.46;100373.72;5057463;28;20067;-65
2021/12/26 07:18:02;;;;;;;18.05;9.45;;;;;;;1.88;73.29;100363.28;5075149;28;20120;-65
2021/12/26 07:20:34;;;;;;;17.40;8.85;;;;;;;1.93;73.46;100365.59;5075463;28;20048;-64
2021/12/26 07:23:20;;;;;;;17.70;9.13;;;;;;;1.75;73.68;100379.91;5057346;28;20044;-65
2021/12/26 07:25:51;;;;;;;17.88;8.98;;;;;;;1.86;73.46;100366.97;5025576;28;20041;-65
2021/12/26 07:28:19;;;;;;;15.63;8.70;;;;;;;1.92;73.84;100369.97;5071422;28;20033;-64
2021/12/26 07:31:07;;;;;;;15.70;8.27;;;;;;;2.24;71.96;100390.41;5040138;28;20051;-64
2021/12/26 07:33:35;;;;;;;16.85;8.75;;;;;;;2.13;72.62;100379.88;5035409;28;20052;-66
2021/12/26 07:36:04;;;;;;;18.08;8.80;;;;;;;2.20;72.99;100388.97;5060249;28;20485;-65
2021/12/26 07:38:44;;;;;;;16.73;8.55;;;;;;;1.93;73.07;100386.53;5084755;28;20055;-65
2021/12/26 07:41:21;;;;;;;18.40;9.57;;;;;;;1.90;73.14;100376.25;5074994;28;20067;-65
2021/12/26 07:43:50;;;;;;;18.33;8.77;;;;;;;1.97;73.55;100372.28;5074736;28;20044;-65
2021/12/26 07:46:36;;;;;;;17.85;9.10;;;;;;;1.95;72.86;100392.47;5056861;28;20060;-65
2021/12/26 07:49:11;;;;;;;17.63;9.30;;;;;;;1.90;73.98;100377.09;5054263;28;20051;-65
2021/12/26 07:51:59;;;;;;;16.40;8.38;;;;;;;1.99;73.83;100373.00;5039781;28;20367;-65
2021/12/26 07:54:45;;;;;;;16.42;8.68;;;;;;;2.09;73.81;100376.66;5054436;28;20125;-65
2021/12/26 07:57:32;;;;;;;17.90;8.63;;;;;;;2.04;74.06;100378.75;5065992;28;20048;-64
2021/12/26 08:00:19;;;;;;;15.68;8.50;;;;;;;2.05;73.89;100383.00;5080902;28;20119;-65
2021/12/26 08:03:05;;;;;;;19.15;8.93;;;;;;;2.09;73.78;100373.16;5111529;27;20392;-66
2021/12/26 08:05:52;;;;;;;19.83;9.13;;;;;;;2.14;73.16;100375.47;5108777;28;20062;-63
2021/12/26 08:08:35;;;;;;;20.38;9.30;;;;;;;2.06;74.30;100370.78;5092328;28;20071;-66
2021/12/26 08:11:02;;;;;;;19.05;8.80;;;;;;;2.14;73.78;100371.06;5109343;28;20071;-65
2021/12/26 08:13:31;;;;;;;19.83;9.50;;;;;;;2.01;73.68;100381.56;5109092;28;20040;-65
2021/12/26 08:16:00;;;;;;;19.83;9.45;;;;;;;2.09;73.58;100368.78;5097156;28;20396;-65
2021/12/26 08:18:26;;;;;;;20.38;9.45;;;;;;;2.25;73.53;100365.06;5109990;28;20044;-65
2021/12/26 08:20:53;;;;;;;18.95;9.85;;;;;;;2.06;73.71;100369.00;5110241;28;20042;-65
2021/12/26 08:23:20;;;;;;;20.77;10.10;;;;;;;2.22;73.52;100368.75;5108968;28;20047;-65
2021/12/26 08:25:47;;;;;;;20.52;9.73;;;;;;;2.21;74.00;100374.09;5110040;28;20131;-65
2021/12/26 08:28:14;;;;;;;19.38;9.57;;;;;;;2.26;73.58;100364.97;5108732;28;20044;-65
2021/12/26 08:30:43;;;;;;;19.92;9.88;;;;;;;2.35;73.96;100373.94;5090151;28;20035;-65
2021/12/26 08:33:10;;;;;;;21.75;10.02;;;;;;;2.45;73.11;100379.34;5108385;28;20046;-66
2021/12/26 08:35:41;;;;;;;19.23;9.13;;;;;;;2.61;73.22;100374.69;5109920;28;20039;-65
2021/12/26 08:38:08;;;;;;;21.73;10.18;;;;;;;2.53;73.27;100376.19;5109116;28;20093;-64
2021/12/26 08:40:35;;;;;;;17.92;9.20;;;;;;;2.39;73.00;100366.72;5109917;28;20043;-65
2021/12/26 08:43:02;;;;;;;20.38;10.13;;;;;;;2.48;73.34;100373.91;5109610;28;20495;-64
2021/12/26 08:45:29;;;;;;;39.47;21.42;;;;;;;2.36;72.68;100377.41;5109349;28;20052;-65
2021/12/26 08:47:56;;;;;;;24.23;10.60;;;;;;;2.34;73.68;100368.81;5108170;28;20031;-65
2021/12/26 08:50:26;;;;;;;18.98;9.65;;;;;;;2.40;73.56;100366.63;5091413;28;20553;-65
2021/12/26 08:52:54;;;;;;;18.67;9.40;;;;;;;2.34;74.00;100374.06;5091575;28;20036;-65
2021/12/26 08:55:23;;;;;;;20.77;9.90;;;;;;;2.37;73.18;100376.47;5108027;28;20039;-65
2021/12/26 08:57:52;;;;;;;22.00;10.27;;;;;;;2.45;73.17;100372.31;5108982;28;20067;-65
2021/12/26 09:00:21;;;;;;;19.90;10.15;;;;;;;2.35;73.46;100375.72;5109226;28;20104;-65
2021/12/26 09:02:48;;;;;;;20.10;10.45;;;;;;;2.54;73.38;100372.63;5107569;28;20481;-64
2021/12/26 09:05:15;;;;;;;21.10;10.18;;;;;;;2.54;72.54;100370.00;5106181;28;20397;-65
2021/12/26 09:07:42;;;;;;;20.65;9.93;;;;;;;2.43;73.70;100370.78;5107970;28;20047;-65
2021/12/26 09:10:11;;;;;;;20.73;9.65;;;;;;;2.35;73.67;100371.34;5091074;28;20083;-65
2021/12/26 09:12:40;;;;;;;23.23;10.32;;;;;;;2.47;73.11;100380.94;5104337;28;20037;-65
2021/12/26 09:15:08;;;;;;;20.55;10.38;;;;;;;2.54;72.63;100383.91;5094153;28;20439;-65
2021/12/26 09:17:37;;;;;;;21.50;10.77;;;;;;;2.62;73.77;100383.34;5095200;28;20040;-65
2021/12/26 09:20:06;;;;;;;22.40;10.13;;;;;;;2.57;73.35;100390.75;5093819;28;20040;-65
2021/12/26 09:22:33;;;;;;;22.45;10.38;;;;;;;2.60;73.81;100380.03;5093808;28;20446;-65
2021/12/26 09:25:00;;;;;;;22.20;11.60;;;;;;;2.61;73.69;100392.19;5094302;28;20048;-65
2021/12/26 09:27:27;;;;;;;20.63;10.20;;;;;;;2.47;73.58;100393.16;5095127;28;20044;-65
2021/12/26 09:29:53;;;;;;;21.05;10.73;;;;;;;2.72;73.24;100392.22;5073991;28;20044;-65
2021/12/26 09:32:23;;;;;;;19.67;10.55;;;;;;;2.91;72.55;100390.88;5092261;28;20500;-65
2021/12/26 09:34:49;;;;;;;20.92;10.80;;;;;;;2.85;71.94;100392.16;5093623;28;20117;-65
2021/12/26 09:37:16;;;;;;;20.75;10.27;;;;;;;2.79;72.88;100393.47;5093681;28;20040;-65
2021/12/26 09:39:43;;;;;;;23.75;10.25;;;;;;;2.86;72.94;100386.81;5076525;28;20090;-64
2021/12/26 09:42:10;;;;;;;22.20;10.57;;;;;;;2.79;73.36;100388.22;5085482;28;20072;-65
2021/12/26 09:44:36;;;;;;;19.45;9.88;;;;;;;2.91;73.08;100388.25;5094821;28;20044;-65
2021/12/26 09:47:05;;;;;;;21.70;10.50;;;;;;;2.87;72.82;100374.53;5077276;28;20084;-65
2021/12/26 09:49:33;;;;;;;22.40;10.88;;;;;;;2.99;73.06;100376.25;5093343;28;20052;-65
2021/12/26 09:51:59;;;;;;;21.85;10.57;;;;;;;2.93;72.64;100371.50;5093560;28;20149;-65
2021/12/26 09:54:26;;;;;;;21.63;10.70;;;;;;;2.99;72.88;100360.53;5094436;28;20048;-65
2021/12/26 09:56:53;;;;;;;21.95;11.25;;;;;;;3.09;72.78;100368.53;5094597;28;20126;-65
2021/12/26 09:59:21;;;;;;;25.50;12.15;;;;;;;3.20;72.55;100367.75;5093254;28;20062;-65
2021/12/26 10:01:52;;;;;;;21.17;10.90;;;;;;;3.13;73.41;100362.13;5093143;28;20052;-65
2021/12/26 10:04:31;;;;;;;20.83;10.70;;;;;;;3.36;72.61;100363.00;5091686;28;20052;-65
2021/12/26 10:07:06;;;;;;;20.30;10.65;;;;;;;3.14;72.80;100362.97;5093251;28;20051;-65
2021/12/26 10:09:51;;;;;;;20.67;10.88;;;;;;;3.20;72.69;100365.13;5093528;28;20552;-64
2021/12/26 10:12:20;;;;;;;23.05;11.00;;;;;;;3.18;73.05;100367.03;5094658;28;20044;-64
2021/12/26 10:14:51;;;;;;;23.17;11.35;;;;;;;3.27;72.79;100363.69;5094193;28;20040;-65
2021/12/26 10:17:23;;;;;;;22.52;11.70;;;;;;;3.24;73.04;100358.72;5093380;28;20074;-64
2021/12/26 10:20:00;;;;;;;22.23;10.77;;;;;;;3.34;72.48;100359.66;5093218;28;20035;-66
2021/12/26 10:22:29;;;;;;;22.40;10.75;;;;;;;3.34;73.07;100354.41;5092138;28;20391;-64
2021/12/26 10:24:56;;;;;;;20.42;10.75;;;;;;;3.46;72.52;100363.97;5074638;28;20040;-66
2021/12/26 10:27:28;;;;;;;20.88;10.65;;;;;;;3.63;72.34;100356.59;5075310;28;20040;-64
2021/12/26 10:29:56;;;;;;;22.17;11.68;;;;;;;3.72;72.88;100355.06;5092843;28;20048;-63
2021/12/26 10:32:31;;;;;;;21.95;10.63;;;;;;;3.85;71.92;100351.34;5075312;28;20093;-64
2021/12/26 10:35:21;;;;;;;18.00;10.20;;;;;;;3.84;72.03;100348.88;5083733;28;20048;-64
2021/12/26 10:37:52;;;;;;;21.02;9.68;;;;;;;3.89;72.68;100345.88;5088152;28;20048;-64
2021/12/26 10:40:25;;;;;;;22.23;10.70;;;;;;;3.77;72.91;100339.81;5092327;28;20113;-64
2021/12/26 10:43:01;;;;;;;19.63;9.90;;;;;;;3.85;72.67;100337.41;5092602;28;20036;-64
2021/12/26 10:45:31;;;;;;;19.33;9.43;;;;;;;3.66;73.53;100327.53;5074798;28;20463;-64
2021/12/26 10:48:04;;;;;;;18.70;10.75;;;;;;;3.73;73.23;100328.72;5092221;28;20468;-64
2021/12/26 10:50:34;;;;;;;20.83;9.60;;;;;;;3.87;73.31;100324.16;5092833;28;20140;-64
2021/12/26 10:53:04;;;;;;;23.73;10.38;;;;;;;3.58;73.83;100319.41;5075397;28;20090;-63
2021/12/26 10:55:38;;;;;;;18.63;10.52;;;;;;;3.53;74.32;100319.78;5087000;28;20040;-64
2021/12/26 10:58:08;;;;;;;24.70;11.65;;;;;;;3.52;75.03;100330.38;5092032;28;20523;-64
2021/12/26 11:00:38;;;;;;;21.08;11.13;;;;;;;3.59;75.12;100327.16;5091797;28;20056;-64
2021/12/26 11:03:08;;;;;;;22.63;11.13;;;;;;;3.48;76.57;100331.56;5093051;28;20047;-64
2021/12/26 11:08:17;;;;;;;20.95;11.10;;;;;;;3.36;77.71;100318.44;5151031;27;20388;-65
2021/12/26 11:10:47;;;;;;;22.20;11.23;;;;;;;3.22;78.75;100314.25;5149431;27;20511;-64
2021/12/26 11:13:25;;;;;;;21.35;11.18;;;;;;;3.24;78.92;100306.28;5150434;27;20042;-64
2021/12/26 11:15:57;;;;;;;24.23;11.45;;;;;;;3.22;79.57;100306.41;5149376;27;20460;-65
2021/12/26 11:18:26;;;;;;;20.42;10.60;;;;;;;3.19;79.83;100297.94;5124075;27;20073;-64
2021/12/26 11:20:58;;;;;;;21.85;10.88;;;;;;;3.17;80.22;100297.22;5123309;27;20048;-64
2021/12/26 11:23:29;;;;;;;21.63;11.43;;;;;;;3.41;79.50;100299.72;5124627;27;20043;-64
2021/12/26 11:26:00;;;;;;;24.88;11.93;;;;;;;3.45;79.70;100291.50;5095106;27;20495;-64
2021/12/26 11:28:30;;;;;;;;;;;;;;;3.55;79.75;100283.75;5112920;27;20047;-64
2021/12/26 11:31:00;;;;;;;21.33;10.75;;;;;;;3.69;79.23;100284.47;5126206;27;20372;-64
2021/12/26 11:33:27;;;;;;;22.17;11.40;;;;;;;3.48;79.96;100293.06;5149337;27;20129;-64
2021/12/26 11:35:56;;;;;;;26.10;12.32;;;;;;;3.76;80.08;100291.72;5148808;27;20034;-65
2021/12/26 11:38:25;;;;;;;24.55;11.65;;;;;;;3.69;79.84;100282.66;5149569;27;20495;-65
2021/12/26 11:41:46;;;;;;;26.20;11.65;;;;;;;3.90;79.63;100290.63;5150116;27;20039;-65
2021/12/26 11:45:13;;;;;;;22.08;11.40;;;;;;;3.94;78.97;100289.44;5147067;27;20134;-64
2021/12/26 11:48:42;;;;;;;21.85;11.35;;;;;;;3.95;78.22;100287.66;5149788;27;20043;-65
2021/12/26 11:52:02;;;;;;;22.48;10.63;;;;;;;3.80;78.24;100284.44;5139912;27;20096;-64